createdAt,value
2022-09-05T00:00:12.319Z,4.20
2022-09-05T00:02:50.823Z,5.17
2022-09-05T00:06:01.729Z,6.97
2022-09-05T00:08:42.456Z,5.90
2022-09-05T00:11:43.320Z,5.07
2022-09-05T00:14:34.377Z,4.47
2022-09-05T00:17:39.399Z,4.40
2022-09-05T00:24:25.045Z,6.03
2022-09-05T00:24:35.280Z,5.47
2022-09-05T00:26:28.880Z,4.70
2022-09-05T00:29:28.890Z,4.63
2022-09-05T00:32:20.666Z,4.63
2022-09-05T00:35:19.246Z,4.20
2022-09-05T00:37:49.023Z,4.93
2022-09-05T00:40:27.516Z,5.40
2022-09-05T00:43:09.960Z,4.77
2022-09-05T00:45:53.115Z,4.90
2022-09-05T00:48:52.683Z,5.40
2022-09-05T00:51:51.159Z,5.17
2022-09-05T00:54:28.367Z,5.20
2022-09-05T00:57:35.699Z,4.63
2022-09-05T01:00:14.941Z,5.03
2022-09-05T01:03:09.775Z,4.70
2022-09-05T01:06:02.150Z,7.73
2022-09-05T01:09:08.064Z,4.70
2022-09-05T01:11:44.467Z,4.37
2022-09-05T01:14:19.961Z,4.70
2022-09-05T01:17:19.940Z,5.57
2022-09-05T01:19:54.647Z,7.77
2022-09-05T01:22:39.954Z,4.80
2022-09-05T01:25:28.431Z,5.03
2022-09-05T01:29:15.698Z,6.17
2022-09-05T01:31:15.609Z,4.57
2022-09-05T01:34:08.419Z,6.37
2022-09-05T01:37:24.896Z,7.63
2022-09-05T01:41:15.552Z,6.03
2022-09-05T01:44:16.901Z,5.00
2022-09-05T01:46:52.029Z,7.37
2022-09-05T01:49:30.398Z,5.30
2022-09-05T01:52:31.217Z,5.30
2022-09-05T01:55:03.690Z,5.33
2022-09-05T01:58:24.025Z,6.40
2022-09-05T02:01:25.379Z,5.93
2022-09-05T02:03:58.979Z,5.27
2022-09-05T02:07:15.287Z,5.43
2022-09-05T02:10:16.763Z,8.47
2022-09-05T02:13:02.253Z,8.17
2022-09-05T02:15:58.976Z,5.43
2022-09-05T02:18:42.139Z,4.97
2022-09-05T02:21:33.288Z,5.00
2022-09-05T02:24:24.420Z,5.83
2022-09-05T02:27:06.122Z,4.97
2022-09-05T02:29:42.041Z,6.40
2022-09-05T02:32:27.799Z,5.27
2022-09-05T02:35:08.445Z,6.17
2022-09-05T02:38:51.069Z,5.87
2022-09-05T02:45:03.294Z,6.10
2022-09-05T02:45:20.533Z,7.13
2022-09-05T02:46:49.535Z,8.13
2022-09-05T02:52:14.271Z,7.83
2022-09-05T02:57:25.778Z,5.80
2022-09-05T02:57:33.868Z,5.10
2022-09-05T02:58:25.064Z,6.43
2022-09-05T03:01:14.905Z,5.10
2022-09-05T03:04:23.258Z,6.23
2022-09-05T03:07:06.901Z,6.83
2022-09-05T03:10:34.632Z,6.70
2022-09-05T03:13:50.159Z,5.23
2022-09-05T03:17:03.198Z,7.27
2022-09-05T03:19:54.144Z,7.10
2022-09-05T03:22:58.219Z,7.03
2022-09-05T03:25:58.044Z,7.27
2022-09-05T03:29:08.919Z,5.20
2022-09-05T03:32:11.081Z,6.00
2022-09-05T03:34:57.737Z,6.73
2022-09-05T03:37:54.539Z,5.33
2022-09-05T03:40:34.644Z,7.20
2022-09-05T03:43:31.554Z,5.33
2022-09-05T03:46:22.316Z,5.50
2022-09-05T03:50:15.337Z,6.97
2022-09-05T03:57:07.847Z,6.67
2022-09-05T03:57:23.589Z,5.90
2022-09-05T03:58:36.762Z,7.57
2022-09-05T04:02:49.212Z,5.27
2022-09-05T04:08:26.022Z,5.33
2022-09-05T04:08:26.539Z,6.20
2022-09-05T04:10:36.323Z,5.93
2022-09-05T04:13:14.546Z,5.50
2022-09-05T04:15:54.652Z,5.60
2022-09-05T04:18:33.126Z,6.70
2022-09-05T04:21:10.586Z,7.33
2022-09-05T04:24:05.132Z,5.13
2022-09-05T04:27:06.689Z,7.17
2022-09-05T04:29:42.343Z,7.37
2022-09-05T04:32:54.944Z,7.23
2022-09-05T04:35:21.753Z,6.40
2022-09-05T04:38:10.831Z,8.17
2022-09-05T04:40:58.200Z,6.97
2022-09-05T04:43:41.888Z,7.93
2022-09-05T04:46:33.329Z,7.03
2022-09-05T04:49:33.118Z,6.70
2022-09-05T04:52:22.918Z,5.87
2022-09-05T04:55:05.833Z,7.13
2022-09-05T04:58:00.115Z,9.30
2022-09-05T05:06:05.378Z,6.73
2022-09-05T05:06:16.465Z,7.57
2022-09-05T05:06:45.466Z,9.80
2022-09-05T05:09:44.609Z,7.93
2022-09-05T05:18:01.743Z,6.13
2022-09-05T05:18:11.816Z,7.03
2022-09-05T05:19:03.038Z,6.93
2022-09-05T05:21:32.825Z,7.27
2022-09-05T05:24:13.577Z,5.30
2022-09-05T05:27:09.273Z,8.30
2022-09-05T05:29:56.692Z,5.67
2022-09-05T05:32:45.996Z,5.70
2022-09-05T05:35:21.487Z,6.43
2022-09-05T05:38:25.417Z,6.30
2022-09-05T05:41:21.961Z,6.77
2022-09-05T05:43:51.285Z,6.20
2022-09-05T05:46:34.658Z,8.00
2022-09-05T05:49:39.728Z,6.80
2022-09-05T05:52:33.111Z,7.67
2022-09-05T05:55:52.368Z,6.60
2022-09-05T05:58:26.131Z,6.80
2022-09-05T06:01:31.666Z,6.23
2022-09-05T06:04:35.417Z,8.30
2022-09-05T06:07:45.163Z,8.93
2022-09-05T06:14:49.418Z,8.07
2022-09-05T06:15:04.230Z,5.50
2022-09-05T06:17:28.108Z,5.63
2022-09-05T06:22:07.205Z,4.97
2022-09-05T06:23:39.451Z,5.20
2022-09-05T06:26:18.723Z,6.80
2022-09-05T06:29:08.368Z,6.83
2022-09-05T06:32:02.971Z,6.90
2022-09-05T06:35:00.232Z,6.83
2022-09-05T06:37:59.732Z,7.07
2022-09-05T06:40:36.393Z,7.90
2022-09-05T06:43:27.149Z,4.80
2022-09-05T06:47:23.281Z,5.30
2022-09-05T06:49:46.208Z,6.63
2022-09-05T06:52:50.951Z,7.43
2022-09-05T06:55:38.429Z,7.13
2022-09-05T06:58:42.784Z,5.93
2022-09-05T07:01:11.461Z,4.57
2022-09-05T07:05:14.882Z,10.67
2022-09-05T07:07:23.019Z,9.40
2022-09-05T07:10:22.145Z,10.37
2022-09-05T07:13:06.212Z,5.83
2022-09-05T07:15:58.224Z,5.17
2022-09-05T07:18:51.214Z,8.50
2022-09-05T07:21:26.696Z,6.00
2022-09-05T07:24:09.435Z,8.83
2022-09-05T07:26:54.545Z,7.27
2022-09-05T07:29:52.401Z,5.93
2022-09-05T07:32:41.438Z,6.33
2022-09-05T07:35:16.803Z,5.10
2022-09-05T07:37:46.665Z,5.27
2022-09-05T07:40:26.193Z,6.63
2022-09-05T07:43:09.348Z,4.63
2022-09-05T07:45:50.827Z,3.83
2022-09-05T07:48:35.114Z,4.30
2022-09-05T07:56:56.829Z,6.77
2022-09-05T07:56:59.809Z,4.73
2022-09-05T07:57:27.105Z,3.53
2022-09-05T07:59:50.720Z,3.77
2022-09-05T08:02:17.427Z,3.80
2022-09-05T08:04:44.641Z,4.43
2022-09-05T08:07:47.092Z,5.50
2022-09-05T08:10:15.550Z,4.43
2022-09-05T08:13:34.079Z,5.73
2022-09-05T08:16:13.014Z,5.03
2022-09-05T08:19:11.712Z,8.33
2022-09-05T08:21:49.604Z,4.27
2022-09-05T08:24:41.207Z,3.70
2022-09-05T08:27:26.203Z,6.03
2022-09-05T08:30:24.345Z,5.77
2022-09-05T08:33:11.885Z,5.80
2022-09-05T08:36:00.843Z,5.53
2022-09-05T08:38:40.454Z,5.97
2022-09-05T08:41:23.719Z,4.20
2022-09-05T08:46:40.603Z,3.77
2022-09-05T08:47:45.970Z,3.57
2022-09-05T08:50:30.166Z,5.73
2022-09-05T08:53:28.348Z,4.40
2022-09-05T08:56:04.458Z,4.83
2022-09-05T08:58:31.012Z,7.80
2022-09-05T09:01:06.202Z,5.20
2022-09-05T09:04:00.645Z,4.73
2022-09-05T09:07:47.002Z,4.67
2022-09-05T09:09:52.600Z,5.23
2022-09-05T09:12:53.995Z,9.07
2022-09-05T09:15:41.829Z,4.23
2022-09-05T09:18:18.320Z,6.70
2022-09-05T09:20:52.956Z,5.37
2022-09-05T09:23:40.372Z,8.07
2022-09-05T09:26:13.320Z,4.00
2022-09-05T09:28:56.300Z,4.13
2022-09-05T09:31:35.290Z,3.67
2022-09-05T09:34:50.776Z,5.97
2022-09-05T09:37:58.692Z,4.60
2022-09-05T09:40:52.405Z,3.67
2022-09-05T09:44:05.364Z,4.93
2022-09-05T09:46:46.493Z,4.70
2022-09-05T09:49:23.190Z,5.90
2022-09-05T09:51:53.009Z,3.47
2022-09-05T09:55:17.368Z,4.68
2022-09-05T09:58:12.132Z,4.03
2022-09-05T10:01:35.175Z,5.60
2022-09-05T10:10:33.265Z,4.35
2022-09-05T10:10:52.851Z,3.83
2022-09-05T10:14:33.829Z,5.43
2022-09-05T10:17:25.675Z,4.88
2022-09-05T10:20:31.125Z,5.65
2022-09-05T10:23:05.318Z,6.60
2022-09-05T10:26:08.822Z,7.20
2022-09-05T10:29:10.209Z,5.43
2022-09-05T10:35:11.616Z,5.18
2022-09-05T10:35:15.103Z,5.30
2022-09-05T10:37:58.605Z,4.80
2022-09-05T10:40:28.195Z,5.03
2022-09-05T10:43:03.668Z,3.90
2022-09-05T10:45:51.593Z,4.53
2022-09-05T10:48:52.866Z,5.68
2022-09-05T10:51:28.299Z,3.38
2022-09-05T10:54:23.885Z,5.05
2022-09-05T10:57:07.212Z,2.65
2022-09-05T11:02:08.115Z,3.38
2022-09-05T11:02:47.229Z,9.48
2022-09-05T11:05:30.882Z,3.72
2022-09-05T11:08:41.652Z,4.90
2022-09-05T11:11:28.602Z,3.30
2022-09-05T11:14:04.641Z,2.50
2022-09-05T11:16:41.082Z,4.70
2022-09-05T11:19:15.743Z,3.60
2022-09-05T11:21:45.496Z,2.90
2022-09-05T11:24:20.140Z,5.53
2022-09-05T11:27:23.397Z,4.38
2022-09-05T11:29:50.830Z,2.78
2022-09-05T11:39:33.472Z,3.67
2022-09-05T11:40:08.725Z,3.40
2022-09-05T11:40:10.854Z,3.15
2022-09-05T11:41:17.079Z,2.97
2022-09-05T11:44:26.131Z,3.47
2022-09-05T11:47:27.916Z,4.07
2022-09-05T11:50:15.132Z,2.55
2022-09-05T11:52:58.035Z,4.25
2022-09-05T11:55:54.789Z,3.55
2022-09-05T11:58:58.393Z,3.33
2022-09-05T12:01:44.055Z,2.88
2022-09-05T12:04:29.083Z,2.65
2022-09-05T12:07:15.585Z,3.35
2022-09-05T12:10:10.072Z,2.90
2022-09-05T12:13:17.072Z,3.08
2022-09-05T12:15:49.771Z,2.47
2022-09-05T12:18:35.502Z,2.20
2022-09-05T12:21:24.613Z,3.67
2022-09-05T12:25:16.157Z,2.80
2022-09-05T12:27:44.394Z,3.25
2022-09-05T12:30:03.047Z,2.40
2022-09-05T12:34:05.298Z,5.53
2022-09-05T12:36:07.543Z,4.60
2022-09-05T12:40:51.996Z,2.53
2022-09-05T12:42:14.612Z,2.88
2022-09-05T12:44:44.802Z,4.57
2022-09-05T12:47:17.041Z,3.00
2022-09-05T12:50:03.550Z,4.85
2022-09-05T12:52:46.287Z,3.53
2022-09-05T12:55:20.159Z,2.47
2022-09-05T13:00:54.105Z,3.03
2022-09-05T13:03:05.042Z,2.60
2022-09-05T13:03:34.831Z,2.60
2022-09-05T13:06:09.233Z,2.30
2022-09-05T13:08:59.501Z,2.25
2022-09-05T13:14:49.602Z,2.50
2022-09-05T13:14:53.533Z,2.58
2022-09-05T13:17:14.343Z,2.95
2022-09-05T13:19:50.972Z,3.28
2022-09-05T13:22:20.509Z,2.90
2022-09-05T13:24:51.097Z,2.58
2022-09-05T13:27:23.420Z,3.35
2022-09-05T13:31:40.646Z,2.90
2022-09-05T13:38:00.412Z,2.50
2022-09-05T13:38:00.715Z,4.82
2022-09-05T13:38:47.638Z,2.65
2022-09-05T13:41:26.950Z,2.60
2022-09-05T13:44:00.063Z,3.03
2022-09-05T13:46:57.864Z,2.63
2022-09-05T13:49:31.194Z,3.42
2022-09-05T13:52:07.680Z,2.47
2022-09-05T13:54:47.576Z,4.40
2022-09-05T13:57:32.522Z,3.40
2022-09-05T14:00:27.102Z,4.72
2022-09-05T14:03:37.903Z,2.60
2022-09-05T14:06:47.581Z,2.63
2022-09-05T14:09:40.325Z,3.22
2022-09-05T14:12:29.224Z,2.78
2022-09-05T14:15:15.743Z,2.50
2022-09-05T14:17:54.507Z,7.28
2022-09-05T14:20:43.341Z,5.18
2022-09-05T14:23:15.699Z,2.67
2022-09-05T14:25:44.652Z,2.75
2022-09-05T14:28:14.094Z,3.35
2022-09-05T14:32:53.082Z,2.85
2022-09-05T14:37:42.356Z,2.78
2022-09-05T14:37:43.765Z,2.65
2022-09-05T14:39:36.850Z,2.50
2022-09-05T14:42:09.289Z,3.47
2022-09-05T14:45:12.586Z,2.50
2022-09-05T14:47:47.445Z,3.03
2022-09-05T14:50:46.210Z,2.60
2022-09-05T14:57:19.048Z,3.28
2022-09-05T15:02:42.068Z,3.30
2022-09-05T15:02:56.202Z,2.75
2022-09-05T15:04:55.136Z,3.58
2022-09-05T15:07:24.988Z,2.85
2022-09-05T15:12:17.889Z,3.25
2022-09-05T15:13:16.864Z,3.40
2022-09-05T15:16:02.075Z,2.58
2022-09-05T15:18:37.529Z,2.70
2022-09-05T15:21:35.389Z,4.05
2022-09-05T15:24:13.660Z,2.88
2022-09-05T15:27:01.575Z,2.58
2022-09-05T15:29:34.001Z,2.40
2022-09-05T15:32:12.957Z,3.03
2022-09-05T15:34:40.003Z,2.50
2022-09-05T15:37:30.450Z,2.42
2022-09-05T15:40:22.924Z,3.17
2022-09-05T15:43:00.699Z,3.38
2022-09-05T15:45:35.137Z,3.53
2022-09-05T15:48:24.095Z,3.50
2022-09-05T15:50:57.411Z,3.63
2022-09-05T15:53:36.851Z,3.20
2022-09-05T15:56:19.123Z,2.53
2022-09-05T15:58:54.844Z,4.60
2022-09-05T16:01:58.396Z,2.63
2022-09-05T16:10:27.143Z,2.50
2022-09-05T16:10:45.159Z,2.88
2022-09-05T16:10:45.712Z,3.20
2022-09-05T16:12:55.977Z,2.58
2022-09-05T16:15:46.632Z,4.78
2022-09-05T16:23:25.130Z,4.53
2022-09-05T16:23:27.191Z,4.90
2022-09-05T16:24:07.796Z,3.90
2022-09-05T16:26:41.577Z,6.13
2022-09-05T16:29:42.194Z,3.83
2022-09-05T16:32:23.065Z,5.10
2022-09-05T16:35:26.389Z,3.25
2022-09-05T16:38:08.965Z,3.17
2022-09-05T16:40:40.928Z,3.20
2022-09-05T16:43:16.193Z,2.55
2022-09-05T16:46:04.421Z,3.05
2022-09-05T16:48:36.673Z,4.15
2022-09-05T16:51:16.411Z,4.88
2022-09-05T16:53:58.245Z,2.78
2022-09-05T16:56:36.842Z,3.03
2022-09-05T16:59:19.063Z,3.78
2022-09-05T17:02:05.856Z,3.33
2022-09-05T17:05:03.571Z,4.60
2022-09-05T17:07:48.716Z,5.78
2022-09-05T17:10:25.570Z,4.15
2022-09-05T17:12:53.663Z,4.70
2022-09-05T17:15:51.681Z,4.20
2022-09-05T17:18:24.999Z,2.42
2022-09-05T17:20:57.045Z,2.42
2022-09-05T17:29:16.980Z,8.02
2022-09-05T17:29:48.907Z,5.93
2022-09-05T17:32:39.580Z,2.92
2022-09-05T17:35:31.259Z,5.65
2022-09-05T17:38:18.868Z,2.70
2022-09-05T17:41:17.923Z,5.60
2022-09-05T17:43:51.391Z,3.75
2022-09-05T17:46:31.502Z,5.13
2022-09-05T17:49:19.806Z,4.77
2022-09-05T17:52:17.250Z,4.53
2022-09-05T17:54:52.119Z,5.30
2022-09-05T17:57:27.986Z,4.13
2022-09-05T17:59:56.099Z,3.27
2022-09-05T18:02:23.918Z,4.53
2022-09-05T18:04:52.479Z,5.47
2022-09-05T18:07:31.041Z,4.17
2022-09-05T18:10:14.737Z,3.43
2022-09-05T18:13:12.415Z,6.30
2022-09-05T18:15:34.442Z,4.27
2022-09-05T18:18:08.385Z,5.00
2022-09-05T18:20:47.143Z,4.53
2022-09-05T18:23:39.705Z,7.20
2022-09-05T18:26:19.246Z,5.33
2022-09-05T18:29:05.887Z,6.77
2022-09-05T18:31:41.539Z,5.53
2022-09-05T18:34:21.035Z,4.57
2022-09-05T18:36:55.947Z,5.33
2022-09-05T18:39:25.605Z,7.20
2022-09-05T18:42:33.841Z,6.87
2022-09-05T18:45:28.735Z,5.53
2022-09-05T18:48:02.616Z,4.07
2022-09-05T18:50:34.303Z,4.20
2022-09-05T18:53:10.302Z,3.60
2022-09-05T18:56:14.015Z,6.83
2022-09-05T18:58:52.094Z,3.47
2022-09-05T19:01:58.608Z,5.07
2022-09-05T19:04:40.566Z,3.33
2022-09-05T19:07:12.897Z,5.20
2022-09-05T19:09:58.011Z,5.00
2022-09-05T19:12:34.552Z,3.43
2022-09-05T19:15:29.777Z,4.20
2022-09-05T19:17:59.420Z,3.90
2022-09-05T19:21:18.959Z,3.83
2022-09-05T19:23:48.958Z,5.53
2022-09-05T19:26:16.273Z,5.20
2022-09-05T19:36:45.721Z,5.10
2022-09-05T19:36:58.629Z,4.60
2022-09-05T19:37:13.896Z,5.17
2022-09-05T19:37:39.651Z,5.43
2022-09-05T19:46:50.775Z,4.00
2022-09-05T19:47:36.960Z,5.40
2022-09-05T19:47:47.077Z,5.40
2022-09-05T19:48:38.246Z,5.30
2022-09-05T19:51:16.402Z,4.57
2022-09-05T19:53:54.062Z,5.87
2022-09-05T19:56:46.416Z,4.17
2022-09-05T19:59:38.057Z,3.77
2022-09-05T20:02:18.582Z,5.20
2022-09-05T20:04:59.152Z,4.80
2022-09-05T20:07:28.091Z,5.43
2022-09-05T20:09:56.323Z,6.63
2022-09-05T20:12:30.717Z,5.13
2022-09-05T20:15:17.831Z,4.40
2022-09-05T20:17:45.945Z,4.37
2022-09-05T20:20:22.335Z,4.13
2022-09-05T20:22:52.822Z,5.13
2022-09-05T20:25:35.539Z,5.70
2022-09-05T20:28:10.022Z,4.50
2022-09-05T20:30:42.241Z,5.40
2022-09-05T20:33:32.862Z,4.50
2022-09-05T20:43:07.907Z,4.27
2022-09-05T20:43:20.078Z,4.00
2022-09-05T20:43:21.590Z,4.10
2022-09-05T20:44:48.418Z,3.97
2022-09-05T20:49:57.595Z,5.03
2022-09-05T20:54:14.531Z,4.33
2022-09-05T20:54:22.775Z,4.97
2022-09-05T20:56:04.644Z,3.70
2022-09-05T20:58:32.777Z,4.10
2022-09-05T21:01:20.849Z,4.30
2022-09-05T21:03:59.278Z,4.80
2022-09-05T21:06:34.026Z,4.03
2022-09-05T21:09:15.915Z,5.47
2022-09-05T21:11:51.705Z,4.50
2022-09-05T21:14:20.639Z,4.50
2022-09-05T21:16:55.903Z,4.97
2022-09-05T21:19:34.790Z,4.07
2022-09-05T21:22:15.455Z,4.77
2022-09-05T21:24:42.386Z,4.77
2022-09-05T21:27:24.272Z,5.20
2022-09-05T21:29:58.710Z,4.10
2022-09-05T21:32:30.248Z,4.53
2022-09-05T21:35:16.033Z,4.30
2022-09-05T21:37:53.470Z,4.83
2022-09-05T21:40:21.104Z,5.80
2022-09-05T21:44:10.515Z,6.27
2022-09-05T21:47:40.214Z,4.70
2022-09-05T21:48:23.814Z,6.07
2022-09-05T21:50:55.798Z,4.03
2022-09-05T21:55:54.770Z,4.93
2022-09-05T21:59:19.092Z,4.70
2022-09-05T21:59:29.499Z,6.17
2022-09-05T22:01:54.805Z,6.00
2022-09-05T22:04:21.794Z,4.60
2022-09-05T22:06:48.998Z,4.80
2022-09-05T22:09:17.782Z,6.00
2022-09-05T22:11:47.917Z,4.20
2022-09-05T22:14:14.471Z,7.67
2022-09-05T22:16:45.175Z,4.70
2022-09-05T22:19:22.289Z,6.40
2022-09-05T22:21:51.845Z,4.80
2022-09-05T22:24:18.920Z,4.80
2022-09-05T22:27:11.386Z,5.27
2022-09-05T22:29:36.198Z,6.70
2022-09-05T22:32:03.945Z,6.07
2022-09-05T22:34:30.814Z,6.97
2022-09-05T22:36:57.468Z,6.37
2022-09-05T22:39:37.299Z,11.10
2022-09-05T22:42:10.859Z,8.97
2022-09-05T22:44:41.701Z,9.10
2022-09-05T22:47:09.908Z,7.93
2022-09-05T22:49:36.885Z,7.20
2022-09-05T22:52:08.586Z,5.73
2022-09-05T22:54:35.819Z,4.83
2022-09-05T22:57:03.659Z,6.80
2022-09-05T22:59:30.833Z,4.80
2022-09-05T23:01:57.589Z,6.67
2022-09-05T23:04:24.270Z,7.27
2022-09-05T23:06:50.913Z,6.63
2022-09-05T23:09:17.518Z,8.80
2022-09-05T23:11:44.239Z,5.50
2022-09-05T23:14:10.855Z,6.07
2022-09-05T23:16:37.463Z,5.83
2022-09-05T23:19:04.132Z,6.57
2022-09-05T23:21:30.800Z,7.00
2022-09-05T23:23:57.379Z,6.00
2022-09-05T23:26:23.991Z,6.03
2022-09-05T23:28:50.585Z,5.63
2022-09-05T23:31:17.669Z,5.60
2022-09-05T23:33:44.919Z,6.63
2022-09-05T23:36:16.243Z,6.57
2022-09-05T23:38:43.849Z,5.83
2022-09-05T23:41:12.873Z,5.53
2022-09-05T23:43:39.533Z,8.17
2022-09-05T23:46:06.976Z,7.40
2022-09-05T23:48:33.640Z,7.07
2022-09-05T23:51:08.568Z,7.10
2022-09-05T23:53:35.652Z,6.23
2022-09-05T23:56:03.297Z,5.23
2022-09-05T23:58:30.981Z,6.17
